Time;durP1;ratioP1;P1;durP2;ratioP2;P2;SDS_P1;SDS_P2;PMS_P1;PMS_P2;Temp;Humidity;BMP_temperature;BMP_pressure;BME280_temperature;BME280_humidity;BME280_pressure;Samples;Min_cycle;Max_cycle;Signal;HPM_P1;HPM_P2
2023/03/05 00:01:16;;;;;;;36.28;17.80;;;;;;;3.42;61.03;96897.06;4993938;28;20137;-79
2023/03/05 00:03:44;;;;;;;31.75;17.02;;;;;;;3.44;61.04;96895.19;4993717;28;20043;-79
2023/03/05 00:06:12;;;;;;;34.00;17.63;;;;;;;3.47;61.16;96900.06;4994142;28;20096;-79
2023/03/05 00:08:41;;;;;;;34.88;18.45;;;;;;;3.50;60.78;96899.03;4993229;28;20093;-79
2023/03/05 00:11:10;;;;;;;31.15;16.92;;;;;;;3.53;61.28;96897.94;4993978;28;20056;-79
2023/03/05 00:13:38;;;;;;;28.85;15.55;;;;;;;3.56;61.02;96892.50;4995078;28;20056;-78
2023/03/05 00:16:08;;;;;;;31.13;17.35;;;;;;;3.58;60.82;96891.44;4998361;28;20513;-79
2023/03/05 00:18:38;;;;;;;33.85;18.30;;;;;;;3.60;60.87;96892.13;4997263;28;20134;-79
2023/03/05 00:21:17;;;;;;;36.17;18.85;;;;;;;3.58;61.01;96891.44;4998119;28;20047;-79
2023/03/05 00:23:45;;;;;;;38.67;18.08;;;;;;;3.53;60.93;96891.00;4997717;28;20137;-79
2023/03/05 00:26:12;;;;;;;33.17;18.98;;;;;;;3.47;61.04;96888.94;4997720;28;20054;-78
2023/03/05 00:28:40;;;;;;;33.35;18.40;;;;;;;3.42;61.48;96885.94;4997166;28;20428;-79
2023/03/05 00:31:07;;;;;;;36.50;19.33;;;;;;;3.39;61.04;96886.19;4997608;28;20431;-79
2023/03/05 00:33:36;;;;;;;38.08;17.88;;;;;;;3.40;61.79;96882.69;4997300;28;20427;-79
2023/03/05 00:36:06;;;;;;;41.42;19.10;;;;;;;3.39;61.48;96879.31;4997300;28;20061;-79
2023/03/05 00:38:34;;;;;;;37.53;18.27;;;;;;;3.37;61.69;96877.78;4997073;28;20472;-79
2023/03/05 00:41:02;;;;;;;39.38;19.23;;;;;;;3.33;61.96;96876.41;4997441;28;20050;-79
2023/03/05 00:43:30;;;;;;;36.83;19.08;;;;;;;3.30;62.00;96877.47;4997204;28;20074;-79
2023/03/05 00:45:57;;;;;;;36.35;18.15;;;;;;;3.28;62.05;96880.19;4997556;28;20046;-79
2023/03/05 00:48:25;;;;;;;37.88;19.77;;;;;;;3.23;62.36;96874.59;4997051;28;20478;-79
2023/03/05 00:50:54;;;;;;;34.05;17.95;;;;;;;3.19;62.49;96875.81;4997818;28;20489;-79
2023/03/05 00:53:22;;;;;;;39.70;19.55;;;;;;;3.18;62.41;96866.44;4997381;28;20057;-79
2023/03/05 00:55:50;;;;;;;38.35;20.27;;;;;;;3.16;62.73;96876.06;4997766;28;20457;-79
2023/03/05 00:58:18;;;;;;;42.85;19.83;;;;;;;3.14;62.91;96875.38;4997075;28;20057;-79
2023/03/05 01:00:45;;;;;;;36.22;17.95;;;;;;;3.15;62.82;96878.75;4997586;28;20587;-79
2023/03/05 01:03:13;;;;;;;37.75;18.60;;;;;;;3.18;62.88;96875.94;5022477;22;21070;-78
2023/03/05 01:05:40;;;;;;;32.55;16.85;;;;;;;3.22;63.28;96865.25;4999847;28;20074;-81
2023/03/05 01:08:09;;;;;;;34.83;17.30;;;;;;;3.30;63.03;96867.16;4998841;28;20078;-81
2023/03/05 01:10:37;;;;;;;36.10;17.13;;;;;;;3.34;62.60;96865.16;4999642;28;20141;-79
2023/03/05 01:13:04;;;;;;;33.83;16.02;;;;;;;3.39;62.55;96857.81;5000158;28;20439;-80
2023/03/05 01:15:32;;;;;;;30.92;16.70;;;;;;;3.43;62.49;96865.19;4999626;28;20057;-79
2023/03/05 01:18:00;;;;;;;33.50;16.25;;;;;;;3.43;62.47;96862.63;4998276;28;20050;-81
2023/03/05 01:20:27;;;;;;;36.33;17.70;;;;;;;3.45;62.34;96862.47;4999097;28;20055;-80
2023/03/05 01:22:57;;;;;;;34.17;17.55;;;;;;;3.44;62.85;96864.25;4998468;28;20081;-80
2023/03/05 01:25:26;;;;;;;34.00;16.90;;;;;;;3.45;63.37;96847.81;4998621;28;20096;-81
2023/03/05 01:27:54;;;;;;;33.17;16.85;;;;;;;3.48;63.01;96854.50;4997792;28;20050;-79
2023/03/05 01:30:21;;;;;;;34.25;17.67;;;;;;;3.50;62.54;96842.28;4998873;28;20058;-78
2023/03/05 01:32:49;;;;;;;32.30;17.17;;;;;;;3.48;62.39;96837.25;4998307;28;20132;-78
2023/03/05 01:35:20;;;;;;;33.92;17.95;;;;;;;3.46;62.62;96838.34;4998258;28;20053;-79
2023/03/05 01:37:48;;;;;;;30.02;16.42;;;;;;;3.48;62.69;96844.19;4997647;28;20137;-80
2023/03/05 01:40:19;;;;;;;34.22;17.85;;;;;;;3.48;63.24;96839.00;4997746;28;20050;-78
2023/03/05 01:42:55;;;;;;;30.40;17.15;;;;;;;3.50;63.07;96844.88;4998097;28;20463;-78
2023/03/05 01:45:22;;;;;;;33.10;17.80;;;;;;;3.52;63.06;96837.81;4998417;28;20046;-79
2023/03/05 01:47:50;;;;;;;38.50;18.27;;;;;;;3.52;62.63;96835.22;4997005;28;20054;-79
2023/03/05 01:50:22;;;;;;;39.60;19.15;;;;;;;3.48;62.93;96824.34;4997502;28;20144;-80
2023/03/05 01:52:54;;;;;;;38.78;18.73;;;;;;;3.45;63.16;96834.91;4997573;28;20082;-79
2023/03/05 01:55:24;;;;;;;32.95;17.25;;;;;;;3.43;63.12;96828.25;4997954;28;20157;-79
2023/03/05 01:57:55;;;;;;;30.20;16.40;;;;;;;3.42;63.41;96824.88;4996811;28;20097;-79
2023/03/05 02:00:29;;;;;;;39.53;17.45;;;;;;;3.45;63.63;96823.78;4997568;28;20137;-80
2023/03/05 02:03:00;;;;;;;32.00;16.45;;;;;;;3.48;63.67;96814.03;4997278;28;20054;-80
2023/03/05 02:05:30;;;;;;;34.58;16.83;;;;;;;3.54;63.81;96812.69;4997611;28;20046;-80
2023/03/05 02:07:59;;;;;;;38.17;18.85;;;;;;;3.53;63.05;96810.25;4997344;28;20073;-78
2023/03/05 02:10:29;;;;;;;36.90;16.92;;;;;;;3.50;63.46;96814.72;4997439;28;20055;-79
2023/03/05 02:13:01;;;;;;;39.72;18.55;;;;;;;3.53;63.76;96808.47;4997320;28;20136;-81
2023/03/05 02:15:30;;;;;;;39.72;19.92;;;;;;;3.54;63.53;96806.72;4997113;28;20501;-78
2023/03/05 02:17:57;;;;;;;32.20;17.10;;;;;;;3.52;63.28;96801.69;4996093;28;20054;-77
2023/03/05 02:20:27;;;;;;;30.98;16.20;;;;;;;3.51;63.74;96792.31;4997844;28;20522;-82
2023/03/05 02:22:56;;;;;;;33.10;16.95;;;;;;;3.55;63.28;96796.25;4997695;28;20129;-82
2023/03/05 02:25:26;;;;;;;36.05;18.75;;;;;;;3.54;63.70;96792.03;4997255;28;20049;-85
2023/03/05 02:27:59;;;;;;;36.47;17.55;;;;;;;3.56;63.60;96791.91;4996958;28;20058;-84
2023/03/05 02:30:27;;;;;;;37.53;18.80;;;;;;;3.56;63.53;96790.16;4996830;28;20061;-78
2023/03/05 02:32:55;;;;;;;34.53;18.70;;;;;;;3.59;63.55;96792.47;4996544;28;20056;-80
2023/03/05 02:35:23;;;;;;;35.13;18.45;;;;;;;3.61;63.17;96795.75;4996836;28;20082;-82
2023/03/05 02:37:50;;;;;;;35.40;19.00;;;;;;;3.60;63.20;96786.34;4995068;28;20069;-81
2023/03/05 02:40:20;;;;;;;35.08;18.27;;;;;;;3.59;63.33;96779.56;4996259;28;20049;-84
2023/03/05 02:42:47;;;;;;;39.38;20.13;;;;;;;3.60;63.15;96781.19;4996396;28;20069;-83
2023/03/05 02:45:15;;;;;;;38.00;20.30;;;;;;;3.58;63.05;96777.94;4996373;28;20047;-81
2023/03/05 02:47:43;;;;;;;35.40;17.02;;;;;;;3.57;63.48;96776.31;4996163;28;20137;-81
2023/03/05 02:50:12;;;;;;;37.65;18.63;;;;;;;3.58;63.50;96772.78;4995707;28;20146;-80
2023/03/05 02:52:39;;;;;;;36.53;19.23;;;;;;;3.58;63.45;96777.94;4996320;28;20133;-80
2023/03/05 02:55:08;;;;;;;39.65;18.45;;;;;;;3.58;63.25;96772.78;4996320;28;20058;-80
2023/03/05 02:57:37;;;;;;;31.23;17.55;;;;;;;3.61;63.82;96767.38;4996480;28;20424;-77
2023/03/05 03:00:08;;;;;;;31.85;17.25;;;;;;;3.63;63.76;96767.22;4995448;28;20050;-78
2023/03/05 03:02:35;;;;;;;39.20;19.27;;;;;;;3.63;63.73;96760.31;4996697;28;20555;-78
2023/03/05 03:05:03;;;;;;;38.38;19.17;;;;;;;3.61;63.56;96756.25;4997172;28;20050;-79
2023/03/05 03:07:33;;;;;;;41.80;18.67;;;;;;;3.52;63.14;96757.84;4997439;28;20052;-82
2023/03/05 03:10:00;;;;;;;36.75;18.20;;;;;;;3.47;63.61;96757.41;4996977;28;20587;-80
2023/03/05 03:12:28;;;;;;;34.75;17.33;;;;;;;3.47;63.85;96753.06;4997977;28;20054;-78
2023/03/05 03:14:57;;;;;;;35.38;18.60;;;;;;;3.50;63.77;96759.75;4997101;28;20527;-79
2023/03/05 03:17:24;;;;;;;33.83;17.20;;;;;;;3.52;63.76;96752.69;4997479;28;20058;-81
2023/03/05 03:19:52;;;;;;;34.45;16.73;;;;;;;3.56;64.05;96754.03;4996525;28;20425;-81
2023/03/05 03:22:19;;;;;;;33.10;17.55;;;;;;;3.60;64.00;96750.25;4996987;28;20153;-82
2023/03/05 03:24:47;;;;;;;34.30;18.25;;;;;;;3.62;63.69;96740.59;4996462;28;20073;-79
2023/03/05 03:27:14;;;;;;;36.17;19.13;;;;;;;3.62;63.70;96744.97;4995990;28;20056;-79
2023/03/05 03:29:42;;;;;;;31.73;16.92;;;;;;;3.62;63.90;96748.34;4995380;28;20054;-85
2023/03/05 03:32:11;;;;;;;36.95;17.67;;;;;;;3.63;63.72;96739.66;4995915;28;20050;-83
2023/03/05 03:34:38;;;;;;;35.15;17.77;;;;;;;3.65;63.50;96734.34;4995222;28;20058;-77
2023/03/05 03:37:07;;;;;;;36.38;19.00;;;;;;;3.65;63.56;96730.03;4995903;28;20050;-80
2023/03/05 03:39:34;;;;;;;35.63;17.83;;;;;;;3.65;63.44;96737.78;4995445;28;20500;-80
2023/03/05 03:42:02;;;;;;;36.80;18.88;;;;;;;3.64;63.62;96733.53;4995612;28;20054;-78
2023/03/05 03:44:29;;;;;;;34.15;17.45;;;;;;;3.62;63.83;96722.53;4995139;28;20057;-82
2023/03/05 03:46:57;;;;;;;35.28;17.40;;;;;;;3.62;63.67;96726.91;4995357;28;20497;-77
2023/03/05 03:49:26;;;;;;;37.47;18.40;;;;;;;3.59;64.07;96725.41;4995123;28;20145;-86
2023/03/05 03:51:54;;;;;;;33.95;17.67;;;;;;;3.57;64.09;96729.88;4995905;28;20050;-78
2023/03/05 03:54:22;;;;;;;39.22;19.08;;;;;;;3.56;64.10;96720.50;4996179;28;20046;-78
2023/03/05 03:56:50;;;;;;;38.38;19.63;;;;;;;3.56;63.87;96717.13;4996297;28;20046;-81
2023/03/05 03:59:17;;;;;;;34.78;17.75;;;;;;;3.57;63.88;96714.41;4994804;28;20096;-80
2023/03/05 04:01:46;;;;;;;34.33;17.08;;;;;;;3.60;63.74;96719.28;4996265;28;20053;-81
2023/03/05 04:04:13;;;;;;;33.60;17.88;;;;;;;3.61;63.74;96715.78;4996414;28;20054;-80
2023/03/05 04:06:43;;;;;;;36.50;18.88;;;;;;;3.62;63.83;96712.22;4996405;28;20042;-80
2023/03/05 04:09:11;;;;;;;34.25;18.45;;;;;;;3.62;63.83;96706.25;4996757;28;20057;-80
2023/03/05 04:11:39;;;;;;;34.28;17.88;;;;;;;3.64;63.83;96707.75;4998854;28;20057;-82
2023/03/05 04:14:07;;;;;;;34.95;18.00;;;;;;;3.65;63.97;96703.41;4999761;28;20066;-80
2023/03/05 04:16:34;;;;;;;33.17;17.75;;;;;;;3.65;63.56;96700.81;4999207;28;20618;-79
2023/03/05 04:19:02;;;;;;;36.83;18.15;;;;;;;3.64;63.80;96687.13;4996818;28;20061;-82
2023/03/05 04:21:29;;;;;;;39.75;19.45;;;;;;;3.67;63.58;96684.28;4997209;28;20579;-82
2023/03/05 04:23:58;;;;;;;35.78;18.02;;;;;;;3.69;63.67;96687.50;4997142;28;20579;-81
2023/03/05 04:26:26;;;;;;;35.10;17.42;;;;;;;3.68;63.07;96685.09;4996777;28;20054;-79
2023/03/05 04:28:53;;;;;;;36.30;17.63;;;;;;;3.67;63.22;96689.44;4996207;28;20059;-81
2023/03/05 04:31:22;;;;;;;39.75;18.55;;;;;;;3.68;63.37;96685.09;4996584;28;20046;-78
2023/03/05 04:33:50;;;;;;;35.15;17.10;;;;;;;3.68;63.15;96678.16;4997228;28;20047;-80
2023/03/05 04:36:17;;;;;;;32.88;17.05;;;;;;;3.71;63.48;96687.38;4996643;28;20046;-81
2023/03/05 04:38:45;;;;;;;30.48;17.08;;;;;;;3.71;62.87;96680.44;4995465;28;20049;-80
2023/03/05 04:41:14;;;;;;;32.92;17.40;;;;;;;3.71;63.38;96680.44;4995998;28;20050;-79
2023/03/05 04:43:41;;;;;;;35.72;18.15;;;;;;;3.71;63.34;96677.88;4995935;28;20050;-79
2023/03/05 04:46:09;;;;;;;36.33;17.50;;;;;;;3.70;63.18;96676.25;4996329;28;20134;-78
2023/03/05 04:48:36;;;;;;;37.78;17.25;;;;;;;3.70;63.31;96673.69;4995290;28;20097;-79
2023/03/05 04:51:04;;;;;;;34.22;18.73;;;;;;;3.71;63.49;96672.72;4995788;28;20134;-81
2023/03/05 04:53:32;;;;;;;33.97;15.77;;;;;;;3.74;63.22;96674.22;4995693;28;20134;-80
2023/03/05 04:56:01;;;;;;;35.17;16.92;;;;;;;3.74;63.23;96669.06;4996114;28;20141;-79
2023/03/05 04:58:30;;;;;;;36.50;18.10;;;;;;;3.75;63.64;96675.84;4995321;28;20133;-79
2023/03/05 05:01:01;;;;;;;34.38;17.52;;;;;;;3.74;63.60;96673.38;4999096;28;20056;-79
2023/03/05 05:03:28;;;;;;;37.85;19.73;;;;;;;3.71;63.20;96667.56;4999021;28;20062;-78
2023/03/05 05:05:57;;;;;;;32.10;16.83;;;;;;;3.69;63.62;96669.44;4999755;28;20491;-79
2023/03/05 05:08:25;;;;;;;32.58;15.90;;;;;;;3.68;63.96;96670.41;4998231;28;20483;-79
2023/03/05 05:10:57;;;;;;;35.75;17.48;;;;;;;3.68;64.02;96667.84;4998640;28;20060;-78
2023/03/05 05:13:24;;;;;;;35.20;17.38;;;;;;;3.67;63.48;96668.81;4999223;28;20050;-81
2023/03/05 05:15:53;;;;;;;37.75;17.58;;;;;;;3.66;63.80;96666.34;4999262;28;20043;-79
2023/03/05 05:18:21;;;;;;;36.58;17.52;;;;;;;3.65;64.14;96660.38;4998486;28;20509;-78
2023/03/05 05:20:49;;;;;;;35.63;16.63;;;;;;;3.68;64.04;96669.59;4998917;28;20501;-78
2023/03/05 05:23:17;;;;;;;32.60;16.83;;;;;;;3.68;64.14;96667.84;4998467;28;20054;-79
2023/03/05 05:25:45;;;;;;;32.95;15.98;;;;;;;3.68;63.51;96660.09;4998442;28;20055;-79
2023/03/05 05:28:12;;;;;;;30.98;15.73;;;;;;;3.69;63.93;96656.56;4997885;28;20061;-84
2023/03/05 05:30:40;;;;;;;31.80;15.50;;;;;;;3.72;63.89;96663.22;4998844;28;20420;-84
2023/03/05 05:33:09;;;;;;;36.78;17.80;;;;;;;3.74;63.77;96655.34;4998591;28;20145;-78
2023/03/05 05:35:39;;;;;;;33.00;15.75;;;;;;;3.74;64.17;96660.50;4999107;28;20085;-79
2023/03/05 05:38:06;;;;;;;34.05;16.10;;;;;;;3.73;64.13;96664.84;4997949;28;20054;-81
2023/03/05 05:40:34;;;;;;;32.03;15.82;;;;;;;3.75;63.74;96654.41;4999573;28;20057;-79
2023/03/05 05:43:02;;;;;;;34.00;15.73;;;;;;;3.76;63.82;96658.59;4998661;28;20141;-83
2023/03/05 05:45:29;;;;;;;33.22;16.75;;;;;;;3.75;64.05;96655.19;4998854;28;20133;-79
2023/03/05 05:47:57;;;;;;;35.28;17.75;;;;;;;3.72;64.09;96658.06;4998277;28;20050;-79
2023/03/05 05:50:26;;;;;;;34.17;16.02;;;;;;;3.72;64.28;96661.47;4997294;28;20046;-81
2023/03/05 05:52:54;;;;;;;38.80;16.38;;;;;;;3.69;63.73;96658.31;4997946;28;20200;-78
2023/03/05 05:55:21;;;;;;;31.38;15.50;;;;;;;3.70;64.20;96657.38;4998447;28;20046;-79
2023/03/05 05:57:49;;;;;;;33.67;17.45;;;;;;;3.71;64.08;96664.16;4997345;28;20141;-85
2023/03/05 06:00:17;;;;;;;33.00;16.75;;;;;;;3.70;64.11;96663.34;4998354;28;20491;-79
2023/03/05 06:02:45;;;;;;;35.13;17.60;;;;;;;3.70;64.27;96663.34;4997883;28;20054;-79
2023/03/05 06:05:14;;;;;;;38.67;18.05;;;;;;;3.69;64.27;96660.91;4998078;28;20050;-80
2023/03/05 06:07:44;;;;;;;37.50;17.40;;;;;;;3.69;64.69;96659.13;4998390;28;20113;-78
2023/03/05 06:10:11;;;;;;;36.70;17.85;;;;;;;3.71;64.05;96670.13;4997751;28;20554;-79
2023/03/05 06:12:39;;;;;;;35.42;16.98;;;;;;;3.70;64.16;96663.34;4996581;28;20428;-78
2023/03/05 06:15:08;;;;;;;38.42;18.13;;;;;;;3.69;64.22;96664.28;4998811;28;20053;-82
2023/03/05 06:17:35;;;;;;;36.70;17.17;;;;;;;3.68;64.15;96662.69;4997721;28;20137;-80
2023/03/05 06:20:04;;;;;;;37.22;17.33;;;;;;;3.69;64.05;96661.72;4997327;28;20053;-79
2023/03/05 06:22:31;;;;;;;37.20;18.48;;;;;;;3.70;63.98;96660.78;4998428;28;20138;-80
2023/03/05 06:25:00;;;;;;;41.80;18.40;;;;;;;3.72;64.33;96655.50;4998276;28;20208;-79
2023/03/05 06:27:28;;;;;;;33.83;18.75;;;;;;;3.71;64.05;96657.22;4997886;28;20055;-79
2023/03/05 06:29:56;;;;;;;32.75;16.52;;;;;;;3.75;63.96;96659.56;4997526;28;20042;-79
2023/03/05 06:32:23;;;;;;;35.63;17.58;;;;;;;3.76;64.22;96656.00;4998529;28;20060;-78
2023/03/05 06:34:52;;;;;;;36.13;17.58;;;;;;;3.78;64.34;96667.00;4997232;28;20138;-79
2023/03/05 06:37:19;;;;;;;34.35;17.80;;;;;;;3.78;63.96;96660.06;4997918;28;20050;-79
2023/03/05 06:39:47;;;;;;;37.53;17.30;;;;;;;3.76;63.74;96656.84;4996411;28;20046;-79
2023/03/05 06:42:18;;;;;;;35.80;17.10;;;;;;;3.77;64.08;96657.66;4997469;28;20058;-79
2023/03/05 06:44:46;;;;;;;33.97;17.00;;;;;;;3.77;64.16;96652.50;4997318;28;20051;-78
2023/03/05 06:47:14;;;;;;;37.50;18.70;;;;;;;3.78;64.11;96654.91;4997842;28;20046;-81
2023/03/05 06:49:42;;;;;;;37.42;17.45;;;;;;;3.80;64.08;96662.53;4996412;28;20140;-79
2023/03/05 06:52:11;;;;;;;34.72;19.05;;;;;;;3.80;63.98;96652.22;4997141;28;20536;-79
2023/03/05 06:54:39;;;;;;;35.72;18.58;;;;;;;3.82;64.38;96655.47;4996115;28;20050;-78
2023/03/05 06:57:06;;;;;;;37.20;17.35;;;;;;;3.81;63.88;96649.50;4996163;28;20081;-78
2023/03/05 06:59:35;;;;;;;36.63;18.70;;;;;;;3.84;64.08;96650.97;4995574;28;20050;-83
2023/03/05 07:02:03;;;;;;;38.75;17.45;;;;;;;3.86;64.44;96656.81;4996450;28;20050;-79
2023/03/05 07:04:30;;;;;;;29.75;16.60;;;;;;;3.85;64.45;96645.69;5016375;22;20074;-80
2023/03/05 07:06:59;;;;;;;34.22;18.50;;;;;;;3.87;63.89;96653.28;4995322;28;20137;-80
2023/03/05 07:09:26;;;;;;;41.92;21.27;;;;;;;3.86;63.90;96651.66;4994539;28;20484;-79
2023/03/05 07:11:54;;;;;;;39.65;19.17;;;;;;;3.84;64.12;96649.22;4995067;28;20105;-79
2023/03/05 07:14:22;;;;;;;35.20;18.40;;;;;;;3.85;64.09;96650.03;4995240;28;20053;-80
2023/03/05 07:16:51;;;;;;;37.10;17.80;;;;;;;3.85;64.13;96650.03;4995282;28;20054;-80
2023/03/05 07:19:18;;;;;;;38.20;17.83;;;;;;;3.85;64.11;96647.47;4994514;28;20047;-80
2023/03/05 07:21:46;;;;;;;35.75;17.73;;;;;;;3.87;63.98;96646.38;4994547;28;20050;-80
2023/03/05 07:24:14;;;;;;;35.33;18.17;;;;;;;3.88;63.93;96649.75;4994738;28;20057;-79
2023/03/05 07:26:41;;;;;;;37.38;18.00;;;;;;;3.87;64.27;96648.94;4994777;28;20129;-80
2023/03/05 07:29:09;;;;;;;36.03;16.25;;;;;;;3.86;64.28;96651.66;4994597;28;20057;-79
2023/03/05 07:31:36;;;;;;;36.88;18.98;;;;;;;3.86;64.33;96649.06;4994917;28;20485;-79
2023/03/05 07:34:05;;;;;;;37.30;18.55;;;;;;;3.85;64.29;96647.47;4994363;28;20496;-79
2023/03/05 07:36:33;;;;;;;39.30;20.15;;;;;;;3.83;64.47;96636.47;4994247;28;20050;-80
2023/03/05 07:39:03;;;;;;;34.35;17.73;;;;;;;3.80;64.32;96636.72;4993636;28;20053;-79
2023/03/05 07:41:31;;;;;;;38.28;17.98;;;;;;;3.81;64.50;96638.38;4994234;28;20595;-79
2023/03/05 07:43:58;;;;;;;42.08;20.13;;;;;;;3.80;64.74;96637.53;4994408;28;20077;-79
2023/03/05 07:46:29;;;;;;;39.20;19.23;;;;;;;3.81;64.88;96644.34;4994780;28;20158;-79
2023/03/05 07:48:58;;;;;;;36.15;17.60;;;;;;;3.83;64.77;96641.63;4994087;28;20406;-79
2023/03/05 07:51:28;;;;;;;38.85;19.23;;;;;;;3.85;65.08;96639.72;4994192;28;20149;-80
2023/03/05 07:53:58;;;;;;;37.88;19.00;;;;;;;3.86;64.47;96643.91;4994020;28;20070;-80
2023/03/05 07:56:30;;;;;;;33.15;17.25;;;;;;;3.88;65.21;96634.28;4994335;28;20054;-80
2023/03/05 07:58:58;;;;;;;41.88;18.70;;;;;;;3.88;64.52;96635.06;4993715;28;20050;-80
2023/03/05 08:01:26;;;;;;;39.35;19.17;;;;;;;3.88;64.52;96636.84;4994387;28;20406;-80
2023/03/05 08:03:53;;;;;;;32.80;17.05;;;;;;;3.91;64.84;96639.97;4994022;28;20522;-78
2023/03/05 08:06:21;;;;;;;35.47;17.90;;;;;;;3.92;64.68;96640.78;4984488;28;20148;-78
2023/03/05 08:08:50;;;;;;;39.92;18.58;;;;;;;3.94;64.56;96643.25;4974690;28;20408;-78
2023/03/05 08:11:18;;;;;;;42.10;20.42;;;;;;;3.95;64.26;96634.53;4973934;28;20057;-78
2023/03/05 08:13:45;;;;;;;36.63;19.52;;;;;;;3.96;64.73;96636.13;4973726;28;20058;-78
2023/03/05 08:16:15;;;;;;;41.10;21.00;;;;;;;3.96;64.47;96625.81;4973894;28;20420;-77
2023/03/05 08:18:43;;;;;;;41.58;18.40;;;;;;;3.96;64.76;96630.97;4987882;28;20137;-76
2023/03/05 08:21:16;;;;;;;36.25;17.80;;;;;;;3.97;64.80;96625.69;4988260;28;20050;-77
2023/03/05 08:23:44;;;;;;;40.65;19.13;;;;;;;3.97;64.49;96628.28;4993159;28;20078;-76
2023/03/05 08:26:15;;;;;;;34.88;17.90;;;;;;;3.97;64.85;96627.47;4992039;28;20042;-76
2023/03/05 08:28:43;;;;;;;46.83;19.10;;;;;;;3.98;64.57;96632.50;4992009;28;20096;-76
2023/03/05 08:31:12;;;;;;;33.70;17.40;;;;;;;3.98;64.46;96629.91;4993201;28;20049;-77
2023/03/05 08:33:40;;;;;;;35.80;18.65;;;;;;;3.99;64.79;96617.81;4994019;28;20050;-77
2023/03/05 08:36:09;;;;;;;35.15;17.75;;;;;;;4.00;64.53;96624.59;4996739;28;20054;-77
2023/03/05 08:38:36;;;;;;;30.63;17.15;;;;;;;4.03;64.71;96627.72;4996352;28;20058;-76
2023/03/05 08:41:04;;;;;;;32.13;17.67;;;;;;;4.04;64.48;96624.16;4996487;28;20146;-76
2023/03/05 08:43:33;;;;;;;34.47;19.15;;;;;;;4.03;64.63;96621.75;4996380;28;20061;-76
2023/03/05 08:46:01;;;;;;;33.45;17.52;;;;;;;4.06;65.03;96627.41;4996864;28;20050;-76
2023/03/05 08:48:30;;;;;;;35.70;17.05;;;;;;;4.07;64.56;96626.47;4997362;28;20056;-76
2023/03/05 08:50:58;;;;;;;37.97;18.58;;;;;;;4.09;64.60;96624.59;4997114;28;20101;-76
2023/03/05 08:53:26;;;;;;;32.53;17.40;;;;;;;4.11;64.68;96625.25;4996452;28;20058;-76
2023/03/05 08:55:55;;;;;;;36.50;17.83;;;;;;;4.12;64.58;96629.44;4995893;28;20046;-76
2023/03/05 08:58:23;;;;;;;36.33;18.70;;;;;;;4.12;64.47;96620.91;4995926;28;20241;-76
2023/03/05 09:00:52;;;;;;;33.15;16.15;;;;;;;4.15;64.52;96624.97;4996253;28;20412;-76
2023/03/05 09:03:19;;;;;;;31.15;16.42;;;;;;;4.18;64.31;96620.34;4993965;28;20053;-76
2023/03/05 09:05:47;;;;;;;34.28;17.17;;;;;;;4.21;64.11;96621.81;4985522;28;20043;-76
2023/03/05 09:08:14;;;;;;;36.17;17.55;;;;;;;4.22;64.42;96615.69;4976123;28;20082;-76
2023/03/05 09:10:46;;;;;;;33.00;17.02;;;;;;;4.22;64.61;96615.69;4987337;28;20505;-76
2023/03/05 09:13:13;;;;;;;32.63;16.77;;;;;;;4.25;64.17;96618.00;4996534;28;20055;-76
2023/03/05 09:15:41;;;;;;;34.70;18.40;;;;;;;4.26;64.34;96615.28;4999058;28;20047;-76
2023/03/05 09:18:10;;;;;;;33.25;16.90;;;;;;;4.27;64.55;96608.34;5010012;28;20070;-76
2023/03/05 09:20:38;;;;;;;36.40;16.80;;;;;;;4.24;64.37;96601.72;5005604;28;20050;-76
2023/03/05 09:23:05;;;;;;;31.13;16.17;;;;;;;4.21;64.42;96606.31;4996918;28;20054;-76
2023/03/05 09:25:33;;;;;;;36.50;17.65;;;;;;;4.21;64.68;96601.16;4995986;28;20053;-76
2023/03/05 09:28:00;;;;;;;36.22;18.02;;;;;;;4.19;64.67;96596.13;4995357;28;20058;-75
2023/03/05 09:30:28;;;;;;;34.00;16.92;;;;;;;4.19;64.58;96595.31;4995998;28;20038;-75
2023/03/05 09:32:55;;;;;;;35.08;17.98;;;;;;;4.16;64.35;96598.22;4996323;28;20054;-76
2023/03/05 09:35:24;;;;;;;31.52;16.42;;;;;;;4.15;64.75;96599.16;4995466;28;20393;-76
2023/03/05 09:37:52;;;;;;;34.22;16.60;;;;;;;4.14;64.86;96598.34;4995160;28;20721;-75
2023/03/05 09:40:21;;;;;;;31.25;17.83;;;;;;;4.12;64.28;96601.06;4995537;28;20504;-76
2023/03/05 09:43:01;;;;;;;27.08;15.57;;;;;;;4.09;64.89;96601.34;4995918;28;20051;-76
2023/03/05 09:45:32;;;;;;;32.33;16.05;;;;;;;4.10;64.53;96594.41;4994916;28;20169;-76
2023/03/05 09:48:12;;;;;;;28.85;16.05;;;;;;;4.13;64.97;96587.22;4994865;28;20636;-76
2023/03/05 09:50:44;;;;;;;31.05;16.88;;;;;;;4.16;64.99;96580.13;4976315;28;20085;-76
2023/03/05 09:53:35;;;;;;;32.13;16.40;;;;;;;4.19;64.83;96582.41;4976482;28;20085;-76
2023/03/05 09:56:09;;;;;;;33.25;16.98;;;;;;;4.21;64.53;96583.09;4989319;28;20054;-76
2023/03/05 09:58:39;;;;;;;34.20;16.65;;;;;;;4.23;64.17;96586.34;4994563;28;20069;-78
2023/03/05 10:01:11;;;;;;;30.88;17.15;;;;;;;4.24;64.04;96581.06;4994680;28;20050;-79
2023/03/05 10:03:49;;;;;;;32.53;15.68;;;;;;;4.25;64.76;96585.25;4995708;28;20515;-80
2023/03/05 10:06:23;;;;;;;31.60;16.15;;;;;;;4.29;64.21;96580.63;4995814;28;20058;-79
2023/03/05 10:08:57;;;;;;;32.95;16.70;;;;;;;4.30;64.00;96577.88;4994520;28;20050;-79
2023/03/05 10:11:36;;;;;;;31.33;15.27;;;;;;;4.34;64.20;96578.41;4995629;28;20066;-80
2023/03/05 10:14:04;;;;;;;31.15;16.15;;;;;;;4.37;63.74;96570.38;4996044;28;20050;-80
2023/03/05 10:16:56;;;;;;;30.63;15.30;;;;;;;4.36;64.17;96576.50;4995435;28;20081;-78
2023/03/05 10:19:47;;;;;;;30.02;16.40;;;;;;;4.32;64.12;96573.38;4995958;28;20046;-78
2023/03/05 10:22:21;;;;;;;31.55;15.85;;;;;;;4.34;64.67;96573.25;4992002;28;20428;-79
2023/03/05 10:25:02;;;;;;;30.80;15.77;;;;;;;4.32;63.72;96564.81;4997165;28;20046;-79
2023/03/05 10:27:40;;;;;;;30.00;14.30;;;;;;;4.30;63.77;96577.88;4994825;28;20046;-79
2023/03/05 10:30:23;;;;;;;31.33;15.48;;;;;;;4.32;64.06;96559.66;4994251;28;20047;-79
2023/03/05 10:32:59;;;;;;;34.25;15.85;;;;;;;4.32;63.27;96560.47;4995747;28;20054;-79
2023/03/05 10:35:48;;;;;;;29.00;15.65;;;;;;;4.35;63.47;96559.38;4981883;28;20091;-78
2023/03/05 10:38:46;;;;;;;30.83;14.23;;;;;;;4.38;63.78;96561.69;4976798;28;20051;-78
2023/03/05 10:41:25;;;;;;;31.05;14.88;;;;;;;4.39;63.44;96549.56;4976322;28;20066;-79
2023/03/05 10:44:01;;;;;;;27.30;14.20;;;;;;;4.38;63.39;96548.75;4982528;28;20133;-79
2023/03/05 10:46:34;;;;;;;28.50;15.07;;;;;;;4.43;63.46;96551.72;4995274;28;20132;-78
2023/03/05 10:49:07;;;;;;;32.72;15.15;;;;;;;4.45;62.95;96551.56;4995490;28;20046;-78
2023/03/05 10:51:41;;;;;;;28.65;15.32;;;;;;;4.47;63.09;96553.06;4995158;28;20097;-78
2023/03/05 10:54:19;;;;;;;29.40;14.60;;;;;;;4.49;63.16;96545.16;4984477;28;20046;-77
2023/03/05 10:56:47;;;;;;;30.05;14.85;;;;;;;4.51;63.25;96538.09;4977233;28;20050;-79
2023/03/05 10:59:15;;;;;;;27.52;15.07;;;;;;;4.53;63.24;96541.34;4994509;28;20080;-80
2023/03/05 11:04:35;;;;;;;31.23;15.68;;;;;;;4.54;63.08;96528.25;5067904;23;20070;-80
2023/03/05 11:07:08;;;;;;;30.33;15.45;;;;;;;4.54;63.19;96523.09;4995185;28;20046;-80
2023/03/05 11:09:37;;;;;;;27.58;14.32;;;;;;;4.57;63.49;96521.19;4994857;28;20065;-81
2023/03/05 11:12:11;;;;;;;37.05;16.67;;;;;;;4.59;62.95;96519.25;4995569;28;20050;-81
2023/03/05 11:14:41;;;;;;;27.83;14.82;;;;;;;4.58;62.91;96522.81;4995370;28;20058;-79
2023/03/05 11:17:26;;;;;;;29.48;16.15;;;;;;;4.59;63.46;96524.44;4995382;28;20054;-80
2023/03/05 11:19:55;;;;;;;30.83;14.35;;;;;;;4.60;63.20;96518.31;4994451;28;20057;-79
2023/03/05 11:22:24;;;;;;;29.77;16.20;;;;;;;4.60;62.93;96518.31;4994546;28;20050;-76
2023/03/05 11:25:14;;;;;;;34.08;16.63;;;;;;;4.63;63.07;96520.59;4993905;28;20138;-81
2023/03/05 11:27:50;;;;;;;30.25;14.57;;;;;;;4.63;63.11;96515.44;4995003;28;20052;-80
2023/03/05 11:30:27;;;;;;;25.88;14.57;;;;;;;4.63;62.95;96510.25;4983302;28;20096;-80
2023/03/05 11:33:08;;;;;;;26.70;15.43;;;;;;;4.63;63.38;96510.25;4993757;28;20050;-80
2023/03/05 11:35:40;;;;;;;25.83;14.57;;;;;;;4.62;63.08;96503.50;4992502;28;20077;-80
2023/03/05 11:38:16;;;;;;;30.90;15.90;;;;;;;4.63;63.06;96494.75;4999617;28;20049;-79